Allentown, New Jersey
Current Conditions -  °F | °C
As of 4:58 AM on Friday 19 Dec 2014 (Local Time) from KWRI Reporting Station
Overcast Overcast  
Wind Chill: 30°   Ceiling: 3500
Heat Index: 36°   Visibility: 10mi
Dew Point: 25°   Wind: 8mph
Humidity: 65%   Direction: 290°WNW
Pressure: 29.99"   Gusts: NA
Location:  40.18°N, 74.58°W
Report Text: KWRI 190958Z AUTO 29007KT 10SM OVC035 02/M04 A2999 RMK AO2 SLP160 T00221037
Loading
Personal Weather Stations






























Interactive Weather Map New forecast layout! Learn more

10-Day Weather Forecast

Advertisements
Track Severe Weather on mobile